Time;durP1;ratioP1;P1;durP2;ratioP2;P2;SDS_P1;SDS_P2;PMS_P1;PMS_P2;Temp;Humidity;BMP_temperature;BMP_pressure;BME280_temperature;BME280_humidity;BME280_pressure;Samples;Min_cycle;Max_cycle;Signal;HPM_P1;HPM_P2
2022/06/29 00:01:31;;;;;;;;;;;19.20;99.90;;;;;;5124506;27;19916;-54
2022/06/29 00:04:11;;;;;;;;;;;19.20;99.90;;;;;;5103887;27;19930;-57
2022/06/29 00:06:51;;;;;;;;;;;19.20;99.90;;;;;;5094438;27;20074;-56
2022/06/29 00:09:31;;;;;;;;;;;19.20;99.90;;;;;;5083909;28;19912;-53
2022/06/29 00:12:11;;;;;;;;;;;19.20;99.90;;;;;;5104047;27;19945;-53
2022/06/29 00:14:51;;;;;;;;;;;19.20;99.90;;;;;;5083250;28;20332;-53
2022/06/29 00:17:31;;;;;;;;;;;19.20;99.90;;;;;;5123218;27;20393;-54
2022/06/29 00:20:13;;;;;;;;;;;19.20;99.90;;;;;;5124311;27;19926;-54
2022/06/29 00:22:53;;;;;;;;;;;19.20;99.90;;;;;;5124621;27;20058;-52
2022/06/29 00:25:33;;;;;;;;;;;19.20;99.90;;;;;;5124319;27;19916;-56
2022/06/29 00:28:15;;;;;;;;;;;19.20;99.90;;;;;;5103710;27;20282;-53
2022/06/29 00:30:56;;;;;;;;;;;19.10;99.90;;;;;;5103498;27;19926;-53
2022/06/29 00:33:36;;;;;;;;;;;19.10;99.90;;;;;;5124247;27;19911;-53
2022/06/29 00:36:16;;;;;;;;;;;19.00;99.90;;;;;;5123501;27;19916;-53
2022/06/29 00:38:55;;;;;;;;;;;19.00;99.90;;;;;;5083288;28;19913;-54
2022/06/29 00:41:39;;;;;;;;;;;19.00;99.90;;;;;;5103876;27;19920;-53
2022/06/29 00:44:19;;;;;;;;;;;18.90;99.90;;;;;;5124568;27;20103;-53
2022/06/29 00:47:01;;;;;;;;;;;18.90;99.90;;;;;;5092699;27;19954;-53
2022/06/29 00:49:42;;;;;;;;;;;18.80;99.90;;;;;;5123795;27;19912;-54
2022/06/29 00:52:23;;;;;;;;;;;18.80;99.90;;;;;;5124359;27;19919;-53
2022/06/29 00:55:06;;;;;;;;;;;18.80;99.90;;;;;;5124125;27;19911;-52
2022/06/29 00:57:49;;;;;;;;;;;18.80;99.90;;;;;;5106734;27;19912;-54
2022/06/29 01:00:30;;;;;;;;;;;18.80;99.90;;;;;;5124108;27;19911;-54
2022/06/29 01:03:11;;;;;;;;;;;18.80;99.90;;;;;;5124953;27;19912;-52
2022/06/29 01:05:52;;;;;;;;;;;18.70;99.90;;;;;;5144135;27;20313;-54
2022/06/29 01:08:33;;;;;;;;;;;18.70;99.90;;;;;;5124385;27;19918;-54
2022/06/29 01:11:13;;;;;;;;;;;18.60;99.90;;;;;;5124078;27;19916;-55
2022/06/29 01:13:53;;;;;;;;;;;18.50;99.90;;;;;;5124788;27;19912;-53
2022/06/29 01:16:32;;;;;;;;;;;18.50;99.90;;;;;;5144709;27;20361;-54
2022/06/29 01:19:12;;;;;;;;;;;18.40;99.90;;;;;;5124590;27;19918;-53
2022/06/29 01:21:52;;;;;;;;;;;18.40;99.90;;;;;;5123795;27;19912;-53
2022/06/29 01:24:33;;;;;;;;;;;18.40;99.90;;;;;;5124414;27;20560;-54
2022/06/29 01:27:14;;;;;;;;;;;18.40;99.90;;;;;;5090615;27;20334;-54
2022/06/29 01:29:55;;;;;;;;;;;18.40;99.90;;;;;;5103342;27;19920;-55
2022/06/29 01:32:38;;;;;;;;;;;18.40;99.90;;;;;;5124691;27;19912;-53
2022/06/29 01:35:22;;;;;;;;;;;18.30;99.90;;;;;;5124599;27;19916;-53
2022/06/29 01:38:02;;;;;;;;;;;18.20;99.90;;;;;;5131969;27;19915;-52
2022/06/29 01:40:42;;;;;;;;;;;18.20;99.90;;;;;;5103338;27;19912;-54
2022/06/29 01:43:22;;;;;;;;;;;18.20;99.90;;;;;;5124470;27;19912;-55
2022/06/29 01:46:02;;;;;;;;;;;18.20;99.90;;;;;;5123727;27;20184;-53
2022/06/29 01:48:41;;;;;;;;;;;18.30;99.90;;;;;;5103266;27;20583;-53
2022/06/29 01:51:21;;;;;;;;;;;18.30;99.90;;;;;;5104586;27;20377;-53
2022/06/29 01:54:01;;;;;;;;;;;18.30;99.90;;;;;;5099872;27;19930;-53
2022/06/29 01:56:41;;;;;;;;;;;18.30;99.90;;;;;;5092037;27;19912;-53
2022/06/29 01:59:21;;;;;;;;;;;18.30;99.90;;;;;;5124341;27;19915;-53
2022/06/29 02:02:01;;;;;;;;;;;18.30;99.90;;;;;;5124194;27;19912;-52
2022/06/29 02:04:40;;;;;;;;;;;18.20;99.90;;;;;;5124275;27;19916;-53
2022/06/29 02:07:20;;;;;;;;;;;18.30;99.90;;;;;;5110191;27;20377;-53
2022/06/29 02:10:00;;;;;;;;;;;18.20;99.90;;;;;;5103270;27;19927;-52
2022/06/29 02:12:40;;;;;;;;;;;18.20;99.90;;;;;;5103838;27;19926;-53
2022/06/29 02:15:23;;;;;;;;;;;18.20;99.90;;;;;;5124070;27;20377;-53
2022/06/29 02:18:03;;;;;;;;;;;18.20;99.90;;;;;;5082654;28;19916;-52
2022/06/29 02:20:42;;;;;;;;;;;18.20;99.90;;;;;;5123704;27;19912;-53
2022/06/29 02:23:22;;;;;;;;;;;18.10;99.90;;;;;;5103814;27;20312;-53
2022/06/29 02:26:02;;;;;;;;;;;18.10;99.90;;;;;;5120791;27;20392;-53
2022/06/29 02:28:42;;;;;;;;;;;18.10;99.90;;;;;;5123257;27;19912;-53
2022/06/29 02:37:17;;;;;;;;;;;18.20;99.90;;;;;;5110635;27;20317;-53
2022/06/29 02:39:57;;;;;;;;;;;18.20;99.90;;;;;;5123573;27;20424;-53
2022/06/29 02:42:36;;;;;;;;;;;18.20;99.90;;;;;;5123938;27;19912;-53
2022/06/29 02:45:16;;;;;;;;;;;18.10;99.90;;;;;;5103279;27;19920;-53
2022/06/29 02:47:56;;;;;;;;;;;18.10;99.90;;;;;;5083912;27;19981;-53
2022/06/29 02:50:36;;;;;;;;;;;18.10;99.90;;;;;;5123690;27;19912;-53
2022/06/29 02:53:16;;;;;;;;;;;18.10;99.90;;;;;;5123499;27;20401;-53
2022/06/29 02:55:55;;;;;;;;;;;18.00;99.90;;;;;;5120853;27;19934;-53
2022/06/29 02:58:35;;;;;;;;;;;18.00;99.90;;;;;;5123487;27;19912;-53
2022/06/29 03:01:15;;;;;;;;;;;18.00;99.90;;;;;;5143526;27;19915;-53
2022/06/29 03:03:55;;;;;;;;;;;18.00;99.90;;;;;;5124048;27;19912;-53
2022/06/29 03:06:35;;;;;;;;;;;18.00;99.90;;;;;;5096097;27;20474;-53
2022/06/29 03:09:15;;;;;;;;;;;17.90;99.90;;;;;;5123833;27;20413;-53
2022/06/29 03:11:54;;;;;;;;;;;17.90;99.90;;;;;;5121208;27;19918;-52
2022/06/29 03:14:34;;;;;;;;;;;17.90;99.90;;;;;;5124124;27;19912;-53
2022/06/29 03:17:14;;;;;;;;;;;17.90;99.90;;;;;;5110937;27;19913;-53
2022/06/29 03:19:54;;;;;;;;;;;17.90;99.90;;;;;;5122844;27;20343;-53
2022/06/29 03:22:34;;;;;;;;;;;17.90;99.90;;;;;;5104260;27;19934;-52
2022/06/29 03:25:14;;;;;;;;;;;17.80;99.90;;;;;;5124253;27;20165;-53
2022/06/29 03:27:53;;;;;;;;;;;17.80;99.90;;;;;;5104963;27;19916;-53
2022/06/29 03:30:33;;;;;;;;;;;17.80;99.90;;;;;;5103391;27;19916;-53
2022/06/29 03:33:13;;;;;;;;;;;17.70;99.90;;;;;;5124124;27;19911;-52
2022/06/29 03:35:53;;;;;;;;;;;17.70;99.90;;;;;;5122040;27;20331;-52
2022/06/29 03:38:33;;;;;;;;;;;17.70;99.90;;;;;;5124161;27;19919;-53
2022/06/29 03:41:12;;;;;;;;;;;17.60;99.90;;;;;;5102807;27;19934;-53
2022/06/29 03:43:52;;;;;;;;;;;17.70;99.90;;;;;;5103517;27;19912;-53
2022/06/29 03:46:32;;;;;;;;;;;17.80;99.90;;;;;;5116273;27;19918;-53
2022/06/29 03:49:12;;;;;;;;;;;18.00;99.90;;;;;;5144154;27;20323;-53
2022/06/29 03:51:52;;;;;;;;;;;18.10;99.90;;;;;;5103288;27;19962;-53
2022/06/29 03:54:32;;;;;;;;;;;18.20;99.90;;;;;;5103815;27;19912;-53
2022/06/29 03:57:11;;;;;;;;;;;18.30;99.90;;;;;;5102695;27;19916;-53
2022/06/29 03:59:51;;;;;;;;;;;18.40;99.90;;;;;;5124150;27;19912;-52
2022/06/29 04:02:31;;;;;;;;;;;18.40;99.90;;;;;;5124435;27;19912;-52
2022/06/29 04:05:11;;;;;;;;;;;18.50;99.90;;;;;;5117460;27;20340;-53
2022/06/29 04:07:51;;;;;;;;;;;18.60;99.90;;;;;;5092830;27;19934;-53
2022/06/29 04:10:31;;;;;;;;;;;18.60;99.90;;;;;;5122615;27;19918;-53
2022/06/29 04:13:10;;;;;;;;;;;18.70;99.90;;;;;;5124357;27;19925;-52
2022/06/29 04:15:50;;;;;;;;;;;18.80;99.90;;;;;;5121010;27;19931;-52
2022/06/29 04:18:30;;;;;;;;;;;18.90;99.90;;;;;;5098364;27;20324;-53
2022/06/29 04:21:10;;;;;;;;;;;19.00;99.90;;;;;;5100502;27;19973;-53
2022/06/29 04:23:50;;;;;;;;;;;19.10;99.90;;;;;;5097357;27;20395;-52
2022/06/29 04:26:30;;;;;;;;;;;19.20;99.90;;;;;;5115960;27;19927;-53
2022/06/29 04:29:10;;;;;;;;;;;19.30;99.90;;;;;;5118689;27;19915;-53
2022/06/29 04:31:49;;;;;;;;;;;19.40;99.90;;;;;;5102412;27;19970;-53
2022/06/29 04:34:29;;;;;;;;;;;19.30;99.90;;;;;;5124307;27;19911;-53
2022/06/29 04:37:09;;;;;;;;;;;19.30;99.90;;;;;;5117516;27;19915;-53
2022/06/29 04:39:49;;;;;;;;;;;19.30;99.90;;;;;;5103235;27;19918;-53
2022/06/29 04:42:29;;;;;;;;;;;19.20;99.90;;;;;;5124684;27;19912;-53
2022/06/29 04:46:19;;;;;;;;;;;19.20;99.90;;;;;;5124765;27;19915;-53
2022/06/29 04:48:09;;;;;;;;;;;19.20;99.90;;;;;;5122935;27;20122;-52
2022/06/29 04:50:49;;;;;;;;;;;19.10;99.90;;;;;;5123974;27;19916;-52
2022/06/29 04:53:29;;;;;;;;;;;19.00;99.90;;;;;;5124015;27;20384;-52
2022/06/29 04:56:09;;;;;;;;;;;18.90;99.90;;;;;;5122674;27;19915;-52
2022/06/29 04:58:48;;;;;;;;;;;18.90;99.90;;;;;;5122854;27;20318;-53
2022/06/29 05:01:29;;;;;;;;;;;18.90;99.90;;;;;;5102309;27;19954;-53
2022/06/29 05:04:10;;;;;;;;;;;18.90;99.90;;;;;;5123270;27;19915;-52
2022/06/29 05:06:49;;;;;;;;;;;18.90;99.90;;;;;;5092629;27;19930;-53
2022/06/29 05:09:29;;;;;;;;;;;18.90;99.90;;;;;;5122871;27;19927;-53
2022/06/29 05:12:10;;;;;;;;;;;18.90;99.90;;;;;;5102647;27;20346;-53
2022/06/29 05:14:51;;;;;;;;;;;19.00;99.90;;;;;;5102890;27;19926;-53
2022/06/29 05:17:36;;;;;;;;;;;19.10;99.90;;;;;;5107326;27;19916;-52
2022/06/29 05:20:17;;;;;;;;;;;19.10;99.90;;;;;;5124000;27;20431;-53
2022/06/29 05:22:56;;;;;;;;;;;19.00;99.90;;;;;;5101781;27;19913;-52
2022/06/29 05:25:39;;;;;;;;;;;19.00;99.90;;;;;;5103509;27;20423;-53
2022/06/29 05:28:19;;;;;;;;;;;19.10;99.90;;;;;;5123953;27;19922;-53
2022/06/29 05:30:59;;;;;;;;;;;19.10;99.90;;;;;;5103876;27;19945;-53
2022/06/29 05:33:39;;;;;;;;;;;19.10;99.90;;;;;;5124825;27;19911;-53
2022/06/29 05:36:19;;;;;;;;;;;19.00;99.90;;;;;;5102863;27;20434;-53
2022/06/29 05:38:59;;;;;;;;;;;19.10;99.90;;;;;;5123529;27;20515;-53
2022/06/29 05:41:38;;;;;;;;;;;19.00;99.90;;;;;;5124101;27;19911;-53
2022/06/29 05:44:18;;;;;;;;;;;19.00;99.90;;;;;;5104116;27;19912;-53
2022/06/29 05:46:58;;;;;;;;;;;19.00;99.90;;;;;;5072578;28;19925;-53
2022/06/29 05:49:38;;;;;;;;;;;19.00;99.90;;;;;;5103899;27;20381;-52
2022/06/29 05:52:18;;;;;;;;;;;19.00;99.90;;;;;;5103947;27;19926;-53
2022/06/29 05:54:58;;;;;;;;;;;19.10;99.90;;;;;;5124092;27;19912;-52
2022/06/29 05:57:39;;;;;;;;;;;19.20;99.90;;;;;;5123835;27;19916;-53
2022/06/29 06:00:19;;;;;;;;;;;19.20;99.90;;;;;;5103643;27;20323;-52
2022/06/29 06:02:59;;;;;;;;;;;19.20;99.90;;;;;;5124511;27;19919;-53
2022/06/29 06:05:38;;;;;;;;;;;19.30;99.90;;;;;;5103480;27;19912;-52
2022/06/29 06:08:18;;;;;;;;;;;19.30;99.90;;;;;;5103534;27;19926;-52
2022/06/29 06:10:58;;;;;;;;;;;19.40;99.90;;;;;;5103660;27;19954;-52
2022/06/29 06:13:38;;;;;;;;;;;19.30;99.90;;;;;;5104694;27;19961;-52
2022/06/29 06:16:18;;;;;;;;;;;19.30;99.90;;;;;;5078414;28;19913;-53
2022/06/29 06:18:58;;;;;;;;;;;19.20;99.90;;;;;;5103461;27;19930;-52
2022/06/29 06:21:37;;;;;;;;;;;19.20;99.90;;;;;;5124201;27;19911;-53
2022/06/29 06:24:17;;;;;;;;;;;19.20;99.90;;;;;;5123849;27;20377;-52
2022/06/29 06:26:57;;;;;;;;;;;19.30;99.90;;;;;;5123726;27;20187;-53
2022/06/29 06:29:37;;;;;;;;;;;19.40;99.90;;;;;;5103962;27;20331;-53
2022/06/29 06:32:17;;;;;;;;;;;19.50;99.90;;;;;;5124159;27;19969;-53
2022/06/29 06:34:57;;;;;;;;;;;19.60;99.90;;;;;;5124386;27;19912;-53
2022/06/29 06:37:36;;;;;;;;;;;19.70;99.90;;;;;;5107848;27;19912;-53
2022/06/29 06:43:14;;;;;;;;;;;19.90;99.90;;;;;;5124686;27;19920;-53
2022/06/29 06:45:53;;;;;;;;;;;20.00;99.90;;;;;;5122690;27;19916;-53
2022/06/29 06:48:33;;;;;;;;;;;20.10;99.90;;;;;;5124301;27;19961;-53
2022/06/29 06:51:13;;;;;;;;;;;20.20;99.90;;;;;;5124290;27;19912;-52
2022/06/29 06:53:53;;;;;;;;;;;20.30;99.90;;;;;;5123966;27;19912;-53
2022/06/29 06:56:33;;;;;;;;;;;20.40;99.90;;;;;;5117528;27;19916;-53
2022/06/29 06:59:13;;;;;;;;;;;20.40;99.90;;;;;;5124537;27;20288;-52
2022/06/29 07:01:55;;;;;;;;;;;20.50;99.90;;;;;;5103475;27;19912;-53
2022/06/29 07:04:36;;;;;;;;;;;20.50;99.90;;;;;;5124900;27;20292;-52
2022/06/29 07:07:16;;;;;;;;;;;20.40;99.90;;;;;;5115647;27;19912;-53
2022/06/29 07:09:55;;;;;;;;;;;20.30;99.90;;;;;;5124050;27;19919;-53
2022/06/29 07:12:35;;;;;;;;;;;20.30;99.90;;;;;;5104229;27;19945;-53
2022/06/29 07:15:15;;;;;;;;;;;20.20;99.90;;;;;;5103922;27;19917;-53
2022/06/29 07:17:55;;;;;;;;;;;20.10;99.90;;;;;;5105543;27;20352;-53
2022/06/29 07:20:36;;;;;;;;;;;20.10;99.90;;;;;;5103545;27;19945;-52
2022/06/29 07:23:18;;;;;;;;;;;20.00;99.90;;;;;;5082103;28;19917;-53
2022/06/29 07:26:01;;;;;;;;;;;20.10;99.90;;;;;;5022135;27;2799092;-53
2022/06/29 07:28:40;;;;;;;;;;;20.20;99.90;;;;;;5124144;27;19911;-52
2022/06/29 07:31:20;;;;;;;;;;;20.30;99.90;;;;;;5124307;27;19912;-52
2022/06/29 07:34:00;;;;;;;;;;;20.60;99.90;;;;;;5103753;27;19946;-53
2022/06/29 07:36:40;;;;;;;;;;;20.80;99.90;;;;;;5115764;27;19916;-52
2022/06/29 07:39:20;;;;;;;;;;;21.30;99.90;;;;;;5093616;27;20423;-52
2022/06/29 07:41:59;;;;;;;;;;;21.70;99.90;;;;;;5089846;27;20005;-53
2022/06/29 07:44:39;;;;;;;;;;;22.10;99.90;;;;;;5123691;27;19911;-53
2022/06/29 07:47:19;;;;;;;;;;;22.40;99.90;;;;;;5110589;27;19920;-52
2022/06/29 07:49:59;;;;;;;;;;;22.80;99.90;;;;;;5123622;27;19926;-53
2022/06/29 07:52:39;;;;;;;;;;;23.30;99.90;;;;;;5104644;27;20323;-55
2022/06/29 07:55:19;;;;;;;;;;;24.00;99.90;;;;;;5099648;27;19926;-54
2022/06/29 07:57:58;;;;;;;;;;;24.20;99.90;;;;;;5063646;28;19921;-55
2022/06/29 08:00:38;;;;;;;;;;;24.20;99.90;;;;;;5122537;27;20180;-55
2022/06/29 08:03:18;;;;;;;;;;;23.80;99.90;;;;;;5084082;28;19912;-52
2022/06/29 08:05:58;;;;;;;;;;;23.30;99.90;;;;;;5122227;27;19926;-52
2022/06/29 08:08:38;;;;;;;;;;;23.10;99.90;;;;;;5083691;28;20317;-54
2022/06/29 08:11:18;;;;;;;;;;;23.00;99.90;;;;;;5103703;27;19926;-53
2022/06/29 08:13:57;;;;;;;;;;;22.90;99.90;;;;;;5124489;27;19918;-54
2022/06/29 08:16:37;;;;;;;;;;;22.70;99.90;;;;;;5114644;27;19915;-55
2022/06/29 08:19:20;;;;;;;;;;;22.50;99.90;;;;;;5112370;27;19922;-55
2022/06/29 08:22:00;;;;;;;;;;;22.60;99.90;;;;;;5103194;27;19945;-52
2022/06/29 08:24:52;;;;;;;;;;;22.50;99.90;;;;;;5117633;27;19922;-54
2022/06/29 08:27:33;;;;;;;;;;;22.70;99.90;;;;;;5122484;27;20076;-56
2022/06/29 08:30:13;;;;;;;;;;;22.90;99.90;;;;;;5122908;27;19916;-53
2022/06/29 08:32:53;;;;;;;;;;;23.10;99.90;;;;;;5144648;27;19912;-52
2022/06/29 08:35:34;;;;;;;;;;;23.20;99.90;;;;;;5117217;27;19916;-53
2022/06/29 08:38:14;;;;;;;;;;;23.50;99.90;;;;;;5113668;27;19915;-54
2022/06/29 08:40:54;;;;;;;;;;;23.70;99.90;;;;;;5123010;27;19929;-55
2022/06/29 08:43:34;;;;;;;;;;;23.60;99.90;;;;;;5122438;27;19916;-53
2022/06/29 08:46:14;;;;;;;;;;;23.30;99.90;;;;;;5122995;27;19922;-54
2022/06/29 08:48:53;;;;;;;;;;;23.20;99.90;;;;;;5103176;27;20431;-52
2022/06/29 08:51:34;;;;;;;;;;;23.30;99.90;;;;;;5124013;27;19911;-54
2022/06/29 08:54:17;;;;;;;;;;;23.30;99.90;;;;;;5124421;27;19915;-55
2022/06/29 08:56:58;;;;;;;;;;;23.30;99.90;;;;;;5091660;27;19954;-54
2022/06/29 08:59:39;;;;;;;;;;;23.40;99.90;;;;;;5122237;27;19912;-56
2022/06/29 09:02:19;;;;;;;;;;;24.10;99.90;;;;;;5123311;27;19911;-54
2022/06/29 09:04:59;;;;;;;;;;;25.40;99.90;;;;;;5101964;27;19916;-55
2022/06/29 09:07:39;;;;;;;;;;;26.70;99.90;;;;;;5117511;27;19945;-54
2022/06/29 09:10:21;;;;;;;;;;;28.00;99.90;;;;;;5123169;27;20316;-55
2022/06/29 09:13:04;;;;;;;;;;;28.70;99.90;;;;;;5124892;27;19953;-53
2022/06/29 09:15:44;;;;;;;;;;;29.00;99.90;;;;;;5095869;27;19912;-53
2022/06/29 09:18:25;;;;;;;;;;;29.20;99.90;;;;;;5118570;27;19938;-54
2022/06/29 09:21:06;;;;;;;;;;;29.40;99.90;;;;;;5120594;27;19916;-55
2022/06/29 09:23:47;;;;;;;;;;;29.40;99.90;;;;;;5119326;27;19912;-56
2022/06/29 09:26:31;;;;;;;;;;;28.70;99.90;;;;;;5102755;27;19912;-53
2022/06/29 09:29:21;;;;;;;;;;;28.00;99.90;;;;;;5090272;27;19954;-54
2022/06/29 09:32:21;;;;;;;;;;;28.20;99.90;;;;;;5123023;27;19911;-53
2022/06/29 09:35:02;;;;;;;;;;;28.30;99.90;;;;;;5103772;27;20369;-53
2022/06/29 09:37:41;;;;;;;;;;;28.10;99.90;;;;;;5105648;27;20423;-53
2022/06/29 09:40:21;;;;;;;;;;;27.90;99.90;;;;;;5121467;27;20327;-55
2022/06/29 09:43:01;;;;;;;;;;;28.20;99.90;;;;;;5100857;27;19916;-52
2022/06/29 09:45:43;;;;;;;;;;;28.50;99.90;;;;;;5093502;27;19969;-53
2022/06/29 09:48:25;;;;;;;;;;;28.30;99.90;;;;;;5110238;27;20016;-54
2022/06/29 09:51:30;;;;;;;;;;;27.60;99.90;;;;;;5122875;27;19912;-53
2022/06/29 09:54:12;;;;;;;;;;;27.60;99.90;;;;;;5143766;27;20326;-53
2022/06/29 09:56:53;;;;;;;;;;;28.10;99.90;;;;;;5093682;27;20435;-53
2022/06/29 10:02:36;;;;;;;;;;;28.10;99.90;;;;;;5124304;27;19911;-54
2022/06/29 10:05:17;;;;;;;;;;;28.00;99.90;;;;;;5124379;27;19925;-55
2022/06/29 10:07:57;;;;;;;;;;;27.90;99.90;;;;;;5118901;27;19924;-52
2022/06/29 10:10:37;;;;;;;;;;;28.00;99.90;;;;;;5082968;28;20332;-54
2022/06/29 10:16:22;;;;;;;;;;;28.00;99.90;;;;;;5103034;27;19912;-54
2022/06/29 10:19:11;;;;;;;;;;;28.10;99.90;;;;;;5124222;27;19920;-52
2022/06/29 10:21:52;;;;;;;;;;;28.20;99.90;;;;;;5124279;27;19916;-53
2022/06/29 10:24:31;;;;;;;;;;;28.70;99.90;;;;;;5179627;27;19911;-54
2022/06/29 10:27:11;;;;;;;;;;;29.00;99.90;;;;;;5123301;27;19911;-56
2022/06/29 10:29:51;;;;;;;;;;;29.30;99.90;;;;;;5103935;27;19926;-54
2022/06/29 10:32:34;;;;;;;;;;;29.60;99.90;;;;;;5104132;27;20134;-52
2022/06/29 10:35:14;;;;;;;;;;;30.10;99.10;;;;;;5124491;27;19918;-53
2022/06/29 10:37:55;;;;;;;;;;;30.10;97.10;;;;;;5105196;27;19926;-54
2022/06/29 10:40:35;;;;;;;;;;;30.10;98.20;;;;;;5124342;27;19916;-53
2022/06/29 10:43:21;;;;;;;;;;;30.10;95.90;;;;;;5123616;27;19916;-53
2022/06/29 10:46:01;;;;;;;;;;;29.90;96.50;;;;;;5124023;27;20254;-53
2022/06/29 10:49:01;;;;;;;;;;;30.10;95.70;;;;;;5123353;27;19911;-54
2022/06/29 10:51:42;;;;;;;;;;;30.20;95.20;;;;;;5124123;27;19945;-54
2022/06/29 10:54:25;;;;;;;;;;;29.90;94.90;;;;;;5124617;27;19912;-53
2022/06/29 10:57:05;;;;;;;;;;;29.80;96.90;;;;;;5092545;27;19934;-53
2022/06/29 10:59:46;;;;;;;;;;;30.00;96.70;;;;;;5101843;27;20439;-54
2022/06/29 11:02:26;;;;;;;;;;;30.10;95.70;;;;;;5145157;27;20316;-53
2022/06/29 11:05:06;;;;;;;;;;;30.30;94.10;;;;;;5103967;27;19913;-55
2022/06/29 11:13:49;;;;;;;;;;;29.30;95.70;;;;;;5124509;27;19953;-54
2022/06/29 11:16:31;;;;;;;;;;;29.40;94.40;;;;;;5123443;27;20378;-53
2022/06/29 11:19:14;;;;;;;;;;;29.60;88.60;;;;;;5103159;27;19920;-54
2022/06/29 11:22:08;;;;;;;;;;;29.50;87.70;;;;;;5102911;27;20374;-53
2022/06/29 11:24:55;;;;;;;;;;;29.30;87.60;;;;;;5123264;27;19923;-55
2022/06/29 11:27:37;;;;;;;;;;;29.40;85.80;;;;;;5086280;27;19928;-53
2022/06/29 11:30:21;;;;;;;;;;;29.60;82.40;;;;;;5124208;27;19916;-52
2022/06/29 11:33:10;;;;;;;;;;;29.70;75.20;;;;;;5117706;27;19923;-53
2022/06/29 11:35:50;;;;;;;;;;;29.40;78.00;;;;;;5118888;27;19916;-52
2022/06/29 11:38:30;;;;;;;;;;;29.30;74.20;;;;;;5079581;27;19920;-53
2022/06/29 11:41:14;;;;;;;;;;;29.30;74.90;;;;;;5124369;27;20312;-52
2022/06/29 11:44:01;;;;;;;;;;;29.30;74.40;;;;;;5123824;27;19925;-54
2022/06/29 11:46:45;;;;;;;;;;;29.60;70.70;;;;;;5094805;27;19931;-55
2022/06/29 11:49:39;;;;;;;;;;;30.00;69.30;;;;;;5123955;27;20262;-52
2022/06/29 11:52:19;;;;;;;;;;;30.30;66.10;;;;;;5125006;27;19912;-54
2022/06/29 11:55:03;;;;;;;;;;;30.70;64.00;;;;;;5101113;27;20109;-52
2022/06/29 11:57:42;;;;;;;;;;;31.00;61.40;;;;;;5103967;27;20286;-54
2022/06/29 12:00:25;;;;;;;;;;;31.30;59.30;;;;;;5103604;27;19920;-53
2022/06/29 12:03:05;;;;;;;;;;;31.70;56.80;;;;;;5103014;27;19912;-52
2022/06/29 12:05:58;;;;;;;;;;;31.90;56.40;;;;;;5100466;27;19918;-53
2022/06/29 12:08:39;;;;;;;;;;;31.90;55.40;;;;;;5112505;27;19916;-53
2022/06/29 12:11:19;;;;;;;;;;;31.80;54.90;;;;;;5121099;27;20278;-54
2022/06/29 12:13:59;;;;;;;;;;;31.70;54.30;;;;;;5125363;27;20387;-53
2022/06/29 12:16:39;;;;;;;;;;;31.70;55.30;;;;;;5111547;27;19916;-54
2022/06/29 12:19:19;;;;;;;;;;;31.50;55.70;;;;;;5124354;27;19916;-55
2022/06/29 12:21:59;;;;;;;;;;;31.20;55.70;;;;;;5103778;27;20245;-53
2022/06/29 12:24:40;;;;;;;;;;;30.80;56.70;;;;;;5122653;27;19911;-54
2022/06/29 12:27:20;;;;;;;;;;;30.30;58.40;;;;;;5122898;27;19912;-53
2022/06/29 12:29:59;;;;;;;;;;;29.80;58.60;;;;;;5123463;27;19915;-54
2022/06/29 12:32:39;;;;;;;;;;;29.70;61.40;;;;;;5123156;27;19912;-53
2022/06/29 12:35:19;;;;;;;;;;;29.90;61.90;;;;;;5119836;27;20298;-55
2022/06/29 12:37:59;;;;;;;;;;;29.90;61.40;;;;;;5097145;27;19926;-56
2022/06/29 12:40:39;;;;;;;;;;;30.10;61.60;;;;;;5123056;27;19912;-54
2022/06/29 12:43:19;;;;;;;;;;;30.40;61.30;;;;;;5123415;27;19925;-54
2022/06/29 12:45:59;;;;;;;;;;;30.40;60.00;;;;;;5123170;27;19919;-53
2022/06/29 12:48:45;;;;;;;;;;;30.60;61.90;;;;;;5124733;27;19912;-52
2022/06/29 12:51:25;;;;;;;;;;;30.90;59.90;;;;;;5124203;27;19912;-53
2022/06/29 12:54:06;;;;;;;;;;;30.80;57.60;;;;;;5083867;28;19917;-56
2022/06/29 12:56:46;;;;;;;;;;;31.10;60.20;;;;;;5103668;27;20134;-55
2022/06/29 12:59:26;;;;;;;;;;;31.00;58.50;;;;;;5123704;27;19915;-54
2022/06/29 13:02:06;;;;;;;;;;;30.90;60.00;;;;;;5124459;27;19916;-52
2022/06/29 13:04:48;;;;;;;;;;;30.80;62.10;;;;;;5122454;27;19915;-53
2022/06/29 13:07:28;;;;;;;;;;;31.00;62.50;;;;;;5089258;27;19920;-54
2022/06/29 13:10:09;;;;;;;;;;;31.30;62.50;;;;;;5122707;27;20385;-54
2022/06/29 13:12:49;;;;;;;;;;;31.40;59.50;;;;;;5103595;27;19916;-52
2022/06/29 13:15:29;;;;;;;;;;;31.40;60.00;;;;;;5124498;27;19918;-52
2022/06/29 13:18:09;;;;;;;;;;;31.40;59.40;;;;;;5103193;27;19934;-54
2022/06/29 13:20:49;;;;;;;;;;;31.50;60.30;;;;;;5123781;27;20179;-53
2022/06/29 13:23:29;;;;;;;;;;;31.30;57.80;;;;;;5104134;27;19916;-53
2022/06/29 13:26:09;;;;;;;;;;;31.40;57.10;;;;;;5103140;27;19920;-55
2022/06/29 13:28:48;;;;;;;;;;;31.40;55.60;;;;;;5124385;27;19915;-54
2022/06/29 13:31:29;;;;;;;;;;;31.90;58.50;;;;;;5124558;27;19953;-53
2022/06/29 13:34:10;;;;;;;;;;;32.30;56.80;;;;;;5124467;27;19912;-53
2022/06/29 13:36:50;;;;;;;;;;;32.60;53.70;;;;;;5090212;27;19918;-54
2022/06/29 13:39:29;;;;;;;;;;;32.50;53.80;;;;;;5103895;27;20186;-53
2022/06/29 13:42:09;;;;;;;;;;;32.10;54.80;;;;;;5103664;27;19930;-53
2022/06/29 13:44:49;;;;;;;;;;;32.00;54.50;;;;;;5103957;27;19930;-55
2022/06/29 13:47:29;;;;;;;;;;;32.30;52.80;;;;;;5109803;27;19922;-55
2022/06/29 13:50:09;;;;;;;;;;;32.40;51.60;;;;;;5120586;27;19912;-53
2022/06/29 13:52:49;;;;;;;;;;;32.40;53.90;;;;;;5124230;27;19912;-52
2022/06/29 13:55:28;;;;;;;;;;;32.10;53.20;;;;;;5102561;27;19923;-52
2022/06/29 13:58:08;;;;;;;;;;;31.70;53.50;;;;;;5121863;27;20335;-52
2022/06/29 14:00:48;;;;;;;;;;;31.40;54.40;;;;;;5103802;27;19926;-52
2022/06/29 14:03:28;;;;;;;;;;;31.60;53.80;;;;;;5103997;27;19912;-55
2022/06/29 14:06:08;;;;;;;;;;;31.60;53.00;;;;;;5095938;27;19926;-52
2022/06/29 14:08:47;;;;;;;;;;;31.40;53.30;;;;;;5119696;27;19911;-52
2022/06/29 14:11:27;;;;;;;;;;;31.90;52.80;;;;;;5117464;27;20312;-52
2022/06/29 14:14:07;;;;;;;;;;;32.00;52.90;;;;;;5123717;27;20369;-52
2022/06/29 14:16:47;;;;;;;;;;;32.30;51.90;;;;;;5113768;27;19912;-54
2022/06/29 14:19:27;;;;;;;;;;;32.30;52.60;;;;;;5124221;27;19926;-53
2022/06/29 14:22:07;;;;;;;;;;;31.90;52.80;;;;;;5102290;27;19958;-52
2022/06/29 14:24:46;;;;;;;;;;;31.00;54.10;;;;;;5123704;27;19934;-53
2022/06/29 14:27:27;;;;;;;;;;;30.60;54.90;;;;;;5109460;27;19916;-53
2022/06/29 14:30:07;;;;;;;;;;;30.20;56.20;;;;;;5124194;27;19912;-52
2022/06/29 14:32:48;;;;;;;;;;;30.10;56.60;;;;;;5124762;27;19970;-52
2022/06/29 14:35:28;;;;;;;;;;;30.10;56.90;;;;;;5100057;27;19912;-54
2022/06/29 14:38:09;;;;;;;;;;;30.30;56.90;;;;;;5116441;27;19915;-55
2022/06/29 14:40:49;;;;;;;;;;;30.70;57.60;;;;;;5098424;27;19912;-53
2022/06/29 14:43:28;;;;;;;;;;;31.00;55.30;;;;;;5122709;27;20294;-53
2022/06/29 14:46:08;;;;;;;;;;;30.80;56.20;;;;;;5121228;27;20196;-53
2022/06/29 14:48:48;;;;;;;;;;;30.80;56.20;;;;;;5123459;27;19911;-53
2022/06/29 14:51:28;;;;;;;;;;;30.30;55.30;;;;;;5120938;27;20393;-53
2022/06/29 14:54:08;;;;;;;;;;;29.60;55.90;;;;;;5104325;27;19915;-52
2022/06/29 14:56:48;;;;;;;;;;;29.50;56.70;;;;;;5115748;27;19920;-54
2022/06/29 14:59:27;;;;;;;;;;;30.30;55.20;;;;;;5122864;27;19915;-55
2022/06/29 15:02:08;;;;;;;;;;;30.90;53.40;;;;;;5102672;27;20328;-53
2022/06/29 15:04:49;;;;;;;;;;;31.10;51.90;;;;;;5124385;27;19925;-53
2022/06/29 15:07:28;;;;;;;;;;;31.20;51.70;;;;;;5109621;27;19912;-52
2022/06/29 15:10:09;;;;;;;;;;;31.10;52.80;;;;;;5144716;27;19918;-52
2022/06/29 15:12:48;;;;;;;;;;;31.10;52.80;;;;;;5124424;27;19916;-55
2022/06/29 15:15:28;;;;;;;;;;;30.90;52.30;;;;;;5119159;27;20370;-56
2022/06/29 15:18:08;;;;;;;;;;;30.60;53.50;;;;;;5102195;27;19916;-53
2022/06/29 15:20:48;;;;;;;;;;;30.30;54.10;;;;;;5149652;27;19923;-53
2022/06/29 15:23:27;;;;;;;;;;;30.10;54.80;;;;;;5079414;27;19912;-55
2022/06/29 15:26:07;;;;;;;;;;;29.70;55.50;;;;;;5120004;27;19916;-52
2022/06/29 15:28:50;;;;;;;;;;;29.40;56.60;;;;;;5123663;27;19912;-53
2022/06/29 15:31:41;;;;;;;;;;;29.40;57.30;;;;;;5136343;27;19916;-53
2022/06/29 15:40:20;;;;;;;;;;;29.80;56.40;;;;;;5123257;27;20409;-53
2022/06/29 15:43:01;;;;;;;;;;;30.00;56.80;;;;;;5123458;27;19920;-54
2022/06/29 15:45:40;;;;;;;;;;;30.00;56.90;;;;;;5123420;27;19919;-54
2022/06/29 15:48:20;;;;;;;;;;;30.10;57.10;;;;;;5122346;27;20270;-54
2022/06/29 15:51:00;;;;;;;;;;;30.10;56.30;;;;;;5121401;27;19919;-52
2022/06/29 15:56:37;;;;;;;;;;;29.90;55.20;;;;;;5102689;27;19950;-53
2022/06/29 15:59:17;;;;;;;;;;;29.80;56.70;;;;;;5124134;27;19912;-53
2022/06/29 16:01:57;;;;;;;;;;;29.40;57.60;;;;;;5124467;27;20306;-55
2022/06/29 16:04:37;;;;;;;;;;;29.20;58.90;;;;;;5103837;27;19916;-55